Texas Enterprise — KSDF — position and weather

sailwx.info

Track history (hours):
 
Tides and Currents Weather Stations Pressure Air Temp Water Temp Dewpoint Dewpoint Depression Visibility Wind Speed Wind Dir Waves Ship Positions

Texas Enterprise

Owner: U.S. United Ocean Services, LLC, Tampa, FL. More information available from US FCC via Universal Licensing System and Coast Guard Vessel Documentation Center.

Last reported at 2014-Nov-26 22:32 UTC. Time now 2014-Nov-26 23:09 UTC.
Position N 27°37' W 082°56'.

Type: Cargo ship. MMSI: 366163000.

Date/timePositionNaut miles runAvg speedWind from/ knotsBaromVisibWave heightAir tempDewpointWater temp
2014-Nov-26 22:32N 27°37' W 082°56'0 0.0
2014-Nov-26 21:29N 27°37' W 082°56'0 0.0
2014-Nov-26 20:32N 27°37' W 082°56'0 0.0
2014-Nov-26 19:11N 27°37' W 082°56'0 0.0
2014-Nov-26 18:05N 27°37' W 082°56'0 0.0
2014-Nov-26 17:23N 27°37' W 082°56'0 0.0
2014-Nov-26 16:32N 27°37' W 082°56'0 0.0
2014-Nov-26 15:29N 27°37' W 082°56'0 0.0
2014-Nov-26 14:08N 27°37' W 082°56'0 0.0
2014-Nov-26 13:32N 27°37' W 082°56'0 0.0
2014-Nov-26 12:32N 27°37' W 082°56'0 0.0
2014-Nov-26 11:32N 27°37' W 082°56'0 0.0
2014-Nov-26 10:29N 27°37' W 082°56'0 0.0
2014-Nov-26 09:32N 27°37' W 082°56'0 0.0
2014-Nov-26 08:32N 27°37' W 082°56'0 0.0
2014-Nov-26 07:32N 27°37' W 082°56'0 0.1
2014-Nov-26 06:32N 27°37' W 082°56'0 0.2
2014-Nov-26 05:32N 27°37' W 082°56'0 0.0
2014-Nov-26 04:32N 27°37' W 082°56'0 0.0
2014-Nov-26 03:32N 27°37' W 082°56'0 0.0
2014-Nov-26 01:32N 27°37' W 082°56'0 0.2
2014-Nov-26 00:34N 27°37' W 082°56'7 6.8
2014-Nov-25 23:34N 27°37' W 083°04'37911.8
2014-Nov-24 15:29N 29°37' W 089°54'0 0.0
2014-Nov-24 10:32N 29°37' W 089°54'  
2014-Nov-21 21:32N 27°36' W 082°59'1211.9
2014-Nov-21 20:33N 27°36' W 082°45'1312.6
2014-Nov-21 19:33N 27°42' W 082°33'9 9.2
2014-Nov-21 18:33N 27°48' W 082°25'0 0.4
2014-Nov-21 17:33N 27°48' W 082°25'0 0.0
2014-Nov-21 16:33N 27°48' W 082°25'0 0.0
2014-Nov-21 15:34N 27°48' W 082°25'0 0.0
2014-Nov-21 14:34N 27°48' W 082°25'0 0.0
2014-Nov-21 13:31N 27°48' W 082°25'0 0.0
2014-Nov-21 12:33N 27°48' W 082°25'0 0.0
2014-Nov-21 11:33N 27°48' W 082°25'0 0.0
2014-Nov-21 10:33N 27°48' W 082°25'0 0.0
2014-Nov-21 09:31N 27°48' W 082°25'0 0.0
2014-Nov-21 08:30N 27°48' W 082°25'0 0.0
2014-Nov-21 07:33N 27°48' W 082°25'0 0.0
2014-Nov-21 06:33N 27°48' W 082°25'0 0.0
2014-Nov-21 05:33N 27°48' W 082°25'0 0.0
2014-Nov-21 04:33N 27°48' W 082°25'0 0.0
2014-Nov-21 03:30N 27°48' W 082°25'0 0.0
2014-Nov-21 02:33N 27°48' W 082°25'0 0.0
2014-Nov-21 01:33N 27°48' W 082°25'0 0.0
2014-Nov-21 00:33N 27°48' W 082°25'0 0.0
2014-Nov-20 23:33N 27°48' W 082°25'0 0.0
2014-Nov-20 22:33N 27°48' W 082°25'0 0.0
2014-Nov-20 21:33N 27°48' W 082°25'0 0.0
2014-Nov-20 20:33N 27°48' W 082°25'0 0.0
2014-Nov-20 19:33N 27°48' W 082°25'0 0.0
2014-Nov-20 18:33N 27°48' W 082°25'0 0.0
2014-Nov-20 17:33N 27°48' W 082°25'0 0.0
2014-Nov-20 16:33N 27°48' W 082°25'0 0.0
2014-Nov-20 15:33N 27°48' W 082°25'0 0.0
2014-Nov-20 14:33N 27°48' W 082°25'0 0.0
2014-Nov-20 13:33N 27°48' W 082°25'0 0.0
2014-Nov-20 12:33N 27°48' W 082°25'0 0.0
2014-Nov-20 11:33N 27°48' W 082°25'0 0.0
2014-Nov-20 10:33N 27°48' W 082°25'0 0.0
2014-Nov-20 09:33N 27°48' W 082°25'0 0.0
2014-Nov-20 08:33N 27°48' W 082°25'0 0.0
2014-Nov-20 07:33N 27°48' W 082°25'0 0.0
2014-Nov-20 06:33N 27°48' W 082°25'0 0.0
2014-Nov-20 05:33N 27°48' W 082°25'0 0.0
2014-Nov-20 04:33N 27°48' W 082°25'0 0.0
2014-Nov-20 03:33N 27°48' W 082°25'0 0.0
2014-Nov-20 02:33N 27°48' W 082°25'0 0.0
2014-Nov-20 01:33N 27°48' W 082°25'0 0.0
2014-Nov-20 00:33N 27°48' W 082°25'1 1.3
2014-Nov-19 23:33N 27°49' W 082°26'9 8.7
2014-Nov-19 22:33N 27°42' W 082°33'1212.5
2014-Nov-19 21:33N 27°36' W 082°45'10 9.9
2014-Nov-19 20:33N 27°37' W 082°56'0 0.2
2014-Nov-19 19:32N 27°37' W 082°56'0 0.0
2014-Nov-19 18:26N 27°37' W 082°56'0 0.0
2014-Nov-19 17:29N 27°37' W 082°56'0 0.0
2014-Nov-19 16:32N 27°37' W 082°56'0 0.0
2014-Nov-19 15:32N 27°37' W 082°56'3 2.8
2014-Nov-19 14:33N 27°36' W 082°59'  
Track history (hours):
 
Tides and Currents Weather Stations Pressure Air Temp Water Temp Dewpoint Dewpoint Depression Visibility Wind Speed Wind Dir Waves Ship Positions

Texas Enterprise

Owner: U.S. United Ocean Services, LLC, Tampa, FL. More information available from US FCC via Universal Licensing System and Coast Guard Vessel Documentation Center.

Last reported at 2014-Nov-26 22:32 UTC. Time now 2014-Nov-26 23:09 UTC.
Position N 27°37' W 082°56'.

Type: Cargo ship. MMSI: 366163000.

Date/timePositionNaut miles runAvg speedWind from/ knotsBaromVisibWave heightAir tempDewpointWater temp
2014-Nov-26 22:32N 27°37' W 082°56'0 0.0
2014-Nov-26 21:29N 27°37' W 082°56'0 0.0
2014-Nov-26 20:32N 27°37' W 082°56'0 0.0
2014-Nov-26 19:11N 27°37' W 082°56'0 0.0
2014-Nov-26 18:05N 27°37' W 082°56'0 0.0
2014-Nov-26 17:23N 27°37' W 082°56'0 0.0
2014-Nov-26 16:32N 27°37' W 082°56'0 0.0
2014-Nov-26 15:29N 27°37' W 082°56'0 0.0
2014-Nov-26 14:08N 27°37' W 082°56'0 0.0
2014-Nov-26 13:32N 27°37' W 082°56'0 0.0
2014-Nov-26 12:32N 27°37' W 082°56'0 0.0
2014-Nov-26 11:32N 27°37' W 082°56'0 0.0
2014-Nov-26 10:29N 27°37' W 082°56'0 0.0
2014-Nov-26 09:32N 27°37' W 082°56'0 0.0
2014-Nov-26 08:32N 27°37' W 082°56'0 0.0
2014-Nov-26 07:32N 27°37' W 082°56'0 0.1
2014-Nov-26 06:32N 27°37' W 082°56'0 0.2
2014-Nov-26 05:32N 27°37' W 082°56'0 0.0
2014-Nov-26 04:32N 27°37' W 082°56'0 0.0
2014-Nov-26 03:32N 27°37' W 082°56'0 0.0
2014-Nov-26 01:32N 27°37' W 082°56'0 0.2
2014-Nov-26 00:34N 27°37' W 082°56'7 6.8
2014-Nov-25 23:34N 27°37' W 083°04'37911.8
2014-Nov-24 15:29N 29°37' W 089°54'0 0.0
2014-Nov-24 10:32N 29°37' W 089°54'  
2014-Nov-21 21:32N 27°36' W 082°59'1211.9
2014-Nov-21 20:33N 27°36' W 082°45'1312.6
2014-Nov-21 19:33N 27°42' W 082°33'9 9.2
2014-Nov-21 18:33N 27°48' W 082°25'0 0.4
2014-Nov-21 17:33N 27°48' W 082°25'0 0.0
2014-Nov-21 16:33N 27°48' W 082°25'0 0.0
2014-Nov-21 15:34N 27°48' W 082°25'0 0.0
2014-Nov-21 14:34N 27°48' W 082°25'0 0.0
2014-Nov-21 13:31N 27°48' W 082°25'0 0.0
2014-Nov-21 12:33N 27°48' W 082°25'0 0.0
2014-Nov-21 11:33N 27°48' W 082°25'0 0.0
2014-Nov-21 10:33N 27°48' W 082°25'0 0.0
2014-Nov-21 09:31N 27°48' W 082°25'0 0.0
2014-Nov-21 08:30N 27°48' W 082°25'0 0.0
2014-Nov-21 07:33N 27°48' W 082°25'0 0.0
2014-Nov-21 06:33N 27°48' W 082°25'0 0.0
2014-Nov-21 05:33N 27°48' W 082°25'0 0.0
2014-Nov-21 04:33N 27°48' W 082°25'0 0.0
2014-Nov-21 03:30N 27°48' W 082°25'0 0.0
2014-Nov-21 02:33N 27°48' W 082°25'0 0.0
2014-Nov-21 01:33N 27°48' W 082°25'0 0.0
2014-Nov-21 00:33N 27°48' W 082°25'0 0.0
2014-Nov-20 23:33N 27°48' W 082°25'0 0.0
2014-Nov-20 22:33N 27°48' W 082°25'0 0.0
2014-Nov-20 21:33N 27°48' W 082°25'0 0.0
2014-Nov-20 20:33N 27°48' W 082°25'0 0.0
2014-Nov-20 19:33N 27°48' W 082°25'0 0.0
2014-Nov-20 18:33N 27°48' W 082°25'0 0.0
2014-Nov-20 17:33N 27°48' W 082°25'0 0.0
2014-Nov-20 16:33N 27°48' W 082°25'0 0.0
2014-Nov-20 15:33N 27°48' W 082°25'0 0.0
2014-Nov-20 14:33N 27°48' W 082°25'0 0.0
2014-Nov-20 13:33N 27°48' W 082°25'0 0.0
2014-Nov-20 12:33N 27°48' W 082°25'0 0.0
2014-Nov-20 11:33N 27°48' W 082°25'0 0.0
2014-Nov-20 10:33N 27°48' W 082°25'0 0.0
2014-Nov-20 09:33N 27°48' W 082°25'0 0.0
2014-Nov-20 08:33N 27°48' W 082°25'0 0.0
2014-Nov-20 07:33N 27°48' W 082°25'0 0.0
2014-Nov-20 06:33N 27°48' W 082°25'0 0.0
2014-Nov-20 05:33N 27°48' W 082°25'0 0.0
2014-Nov-20 04:33N 27°48' W 082°25'0 0.0
2014-Nov-20 03:33N 27°48' W 082°25'0 0.0
2014-Nov-20 02:33N 27°48' W 082°25'0 0.0
2014-Nov-20 01:33N 27°48' W 082°25'0 0.0
2014-Nov-20 00:33N 27°48' W 082°25'1 1.3
2014-Nov-19 23:33N 27°49' W 082°26'9 8.7
2014-Nov-19 22:33N 27°42' W 082°33'1212.5
2014-Nov-19 21:33N 27°36' W 082°45'10 9.9
2014-Nov-19 20:33N 27°37' W 082°56'0 0.2
2014-Nov-19 19:32N 27°37' W 082°56'0 0.0
2014-Nov-19 18:26N 27°37' W 082°56'0 0.0
2014-Nov-19 17:29N 27°37' W 082°56'0 0.0
2014-Nov-19 16:32N 27°37' W 082°56'0 0.0
2014-Nov-19 15:32N 27°37' W 082°56'3 2.8
2014-Nov-19 14:33N 27°36' W 082°59'  

Dump ship's entire track history